createdAt,value
2018-07-27T00:00:38.989Z,50.97
2018-07-27T00:01:38.995Z,50.29
2018-07-27T00:02:38.979Z,50.77
2018-07-27T00:03:39.007Z,50.71
2018-07-27T00:04:39.030Z,50.18
2018-07-27T00:05:38.973Z,49.9
2018-07-27T00:06:39.004Z,50.14
2018-07-27T00:07:39.096Z,50.73
2018-07-27T00:08:39.000Z,49.99
2018-07-27T00:09:39.001Z,50.56
2018-07-27T00:10:39.057Z,49.74
2018-07-27T00:11:38.991Z,49.98
2018-07-27T00:12:38.998Z,49.53
2018-07-27T00:13:39.019Z,49.8
2018-07-27T00:14:38.985Z,49.86
2018-07-27T00:15:39.106Z,51.29
2018-07-27T00:16:39.035Z,51.07
2018-07-27T00:17:38.989Z,51.36
2018-07-27T00:18:39.177Z,50.02
2018-07-27T00:19:39.062Z,50.02
2018-07-27T00:20:39.051Z,50.49
2018-07-27T00:21:39.187Z,50.39
2018-07-27T00:22:39.053Z,51.03
2018-07-27T00:23:39.103Z,50.53
2018-07-27T00:24:39.015Z,50.95
2018-07-27T00:25:39.119Z,50.66
2018-07-27T00:26:39.044Z,51.92
2018-07-27T00:27:39.007Z,51.28
2018-07-27T00:28:39.033Z,50.51
2018-07-27T00:29:39.123Z,50.88
2018-07-27T00:30:39.035Z,51.27
2018-07-27T00:31:39.013Z,50.52
2018-07-27T00:32:39.032Z,50.57
2018-07-27T00:33:39.120Z,50.53
2018-07-27T00:34:39.081Z,50.85
2018-07-27T00:35:39.062Z,50.9
2018-07-27T00:36:39.037Z,51.34
2018-07-27T00:37:39.038Z,51.37
2018-07-27T00:38:39.044Z,50.91
2018-07-27T00:39:39.127Z,51.25
2018-07-27T00:40:39.029Z,50.99
2018-07-27T00:41:39.074Z,50.77
2018-07-27T00:42:39.162Z,51.29
2018-07-27T00:43:39.039Z,51.23
2018-07-27T00:44:39.210Z,50.98
2018-07-27T00:45:39.049Z,50.92
2018-07-27T00:46:39.039Z,50.64
2018-07-27T00:47:39.046Z,50.25
2018-07-27T00:48:39.055Z,51.06
2018-07-27T00:49:39.060Z,51.16
2018-07-27T00:50:39.036Z,51.84
2018-07-27T00:51:39.046Z,51.22
2018-07-27T00:52:39.038Z,51.35
2018-07-27T00:53:39.043Z,50.44
2018-07-27T00:54:39.035Z,51.1
2018-07-27T00:55:39.064Z,51.33
2018-07-27T00:56:39.071Z,51.08
2018-07-27T00:57:39.075Z,51.65
2018-07-27T00:58:39.081Z,51.31
2018-07-27T00:59:39.054Z,51.64
2018-07-27T01:00:39.084Z,51.26
2018-07-27T01:01:39.067Z,51.56
2018-07-27T01:02:39.055Z,51.82
2018-07-27T01:03:39.052Z,51.99
2018-07-27T01:04:39.098Z,51.82
2018-07-27T01:05:39.297Z,51.83
2018-07-27T01:06:39.080Z,52
2018-07-27T01:07:39.145Z,52.45
2018-07-27T01:08:39.090Z,51.99
2018-07-27T01:09:39.103Z,52.24
2018-07-27T01:10:39.116Z,52.33
2018-07-27T01:11:39.077Z,51.76
2018-07-27T01:12:39.085Z,52.18
2018-07-27T01:13:39.109Z,52.27
2018-07-27T01:14:39.089Z,52.54
2018-07-27T01:15:39.095Z,52.53
2018-07-27T01:16:39.064Z,52.45
2018-07-27T01:17:39.183Z,51.83
2018-07-27T01:18:39.108Z,52.8
2018-07-27T01:19:39.090Z,53
2018-07-27T01:20:39.110Z,52.49
2018-07-27T01:21:39.145Z,52.62
2018-07-27T01:22:39.114Z,52.43
2018-07-27T01:23:39.294Z,52.36
2018-07-27T01:24:39.129Z,52.55
2018-07-27T01:25:39.115Z,52.45
2018-07-27T01:26:39.136Z,52.37
2018-07-27T01:27:39.294Z,52.55
2018-07-27T01:28:39.140Z,52.31
2018-07-27T01:29:39.320Z,52.27
2018-07-27T01:30:39.083Z,52.27
2018-07-27T01:31:39.244Z,51.9
2018-07-27T01:32:39.178Z,52.02
2018-07-27T01:33:39.095Z,52.3
2018-07-27T01:34:39.291Z,51.96
2018-07-27T01:35:39.093Z,52.37
2018-07-27T01:36:39.119Z,52.17
2018-07-27T01:37:39.171Z,51.32
2018-07-27T01:38:39.138Z,51.57
2018-07-27T01:39:39.147Z,52.71
2018-07-27T01:40:39.126Z,52.75
2018-07-27T01:41:39.140Z,52.5
2018-07-27T01:42:39.158Z,52.82
2018-07-27T01:43:39.196Z,52.94
2018-07-27T01:44:39.320Z,53.14
2018-07-27T01:45:39.124Z,52.59
2018-07-27T01:46:39.168Z,52.65
2018-07-27T01:47:39.120Z,52.17
2018-07-27T01:48:39.208Z,52.75
2018-07-27T01:49:39.150Z,52.7
2018-07-27T01:50:39.225Z,52.22
2018-07-27T01:51:39.288Z,52.33
2018-07-27T01:52:39.134Z,52.59
2018-07-27T01:53:39.130Z,52.77
2018-07-27T01:54:39.216Z,52.9
2018-07-27T01:55:39.192Z,52.89
2018-07-27T01:56:39.425Z,52.96
2018-07-27T01:57:39.135Z,53.24
2018-07-27T01:58:39.165Z,53.26
2018-07-27T01:59:39.134Z,53.39
2018-07-27T02:00:39.167Z,53.94
2018-07-27T02:01:39.233Z,53.91
2018-07-27T02:02:39.148Z,53.73
2018-07-27T02:03:39.145Z,53.93
2018-07-27T02:04:39.155Z,54.11
2018-07-27T02:05:39.121Z,54.29
2018-07-27T02:06:39.149Z,54.34
2018-07-27T02:07:39.128Z,54.64
2018-07-27T02:08:39.131Z,54.67
2018-07-27T02:09:39.144Z,55.07
2018-07-27T02:10:39.135Z,54.5
2018-07-27T02:11:39.129Z,54.64
2018-07-27T02:12:39.140Z,54
2018-07-27T02:13:39.158Z,54.67
2018-07-27T02:14:39.159Z,54.49
2018-07-27T02:15:39.181Z,53.94
2018-07-27T02:16:39.175Z,53.75
2018-07-27T02:17:39.167Z,54.57
2018-07-27T02:18:39.156Z,54.74
2018-07-27T02:19:39.161Z,53.96
2018-07-27T02:20:39.166Z,54.87
2018-07-27T02:21:39.177Z,54.51
2018-07-27T02:22:39.175Z,54.94
2018-07-27T02:23:39.580Z,55.34
2018-07-27T02:24:39.269Z,54.82
2018-07-27T02:25:39.192Z,54.98
2018-07-27T02:26:39.341Z,54.41
2018-07-27T02:27:39.181Z,54.68
2018-07-27T02:28:39.167Z,54.35
2018-07-27T02:29:39.262Z,53.87
2018-07-27T02:30:39.180Z,54.33
2018-07-27T02:31:39.174Z,53.84
2018-07-27T02:32:39.398Z,54.63
2018-07-27T02:33:39.502Z,55.54
2018-07-27T02:34:39.181Z,54.34
2018-07-27T02:35:39.219Z,54.91
2018-07-27T02:36:39.212Z,54.24
2018-07-27T02:37:39.425Z,55
2018-07-27T02:38:39.183Z,55.09
2018-07-27T02:39:39.207Z,55.59
2018-07-27T02:40:39.187Z,56.04
2018-07-27T02:41:39.199Z,55.77
2018-07-27T02:42:39.206Z,56.46
2018-07-27T02:43:39.193Z,56.8
2018-07-27T02:44:39.264Z,55.84
2018-07-27T02:45:39.316Z,56.23
2018-07-27T02:46:39.307Z,55.83
2018-07-27T02:47:39.241Z,56.27
2018-07-27T02:48:39.260Z,56.68
2018-07-27T02:49:39.299Z,55.9
2018-07-27T02:50:39.224Z,55.15
2018-07-27T02:51:39.365Z,56.06
2018-07-27T02:52:39.348Z,56.01
2018-07-27T02:53:39.229Z,56.48
2018-07-27T02:54:39.225Z,55.55
2018-07-27T02:55:39.194Z,57.03
2018-07-27T02:56:39.230Z,56.38
2018-07-27T02:57:39.535Z,55.7
2018-07-27T02:58:39.266Z,56.88
2018-07-27T02:59:39.294Z,56.55
2018-07-27T03:00:39.407Z,56.28
2018-07-27T03:01:39.248Z,56.29
2018-07-27T03:02:39.257Z,57.03
2018-07-27T03:03:39.203Z,56.6
2018-07-27T03:04:39.322Z,57.05
2018-07-27T03:05:39.427Z,57.11
2018-07-27T03:06:39.236Z,56.93
2018-07-27T03:07:39.227Z,57.15
2018-07-27T03:08:39.230Z,56.78
2018-07-27T03:09:39.429Z,56.85
2018-07-27T03:10:39.276Z,56.15
2018-07-27T03:11:39.225Z,56.43
2018-07-27T03:12:39.272Z,56.84
2018-07-27T03:13:39.365Z,56.97
2018-07-27T03:14:39.437Z,57.96
2018-07-27T03:15:39.228Z,57.72
2018-07-27T03:16:39.245Z,57.25
2018-07-27T03:17:39.284Z,57.53
2018-07-27T03:18:39.264Z,58.19
2018-07-27T03:19:39.245Z,59.4
2018-07-27T03:20:39.251Z,59.11
2018-07-27T03:21:39.270Z,59.19
2018-07-27T03:22:39.240Z,59.4
2018-07-27T03:23:39.250Z,59.68
2018-07-27T03:24:39.408Z,59.88
2018-07-27T03:25:39.241Z,59.72
2018-07-27T03:26:39.233Z,60.07
2018-07-27T03:27:39.323Z,60.65
2018-07-27T03:28:39.241Z,60.45
2018-07-27T03:29:39.340Z,60.74
2018-07-27T03:30:39.277Z,60.47
2018-07-27T03:31:39.254Z,60.83
2018-07-27T03:32:39.243Z,60.96
2018-07-27T03:33:39.295Z,60.77
2018-07-27T03:34:39.291Z,60.13
2018-07-27T03:35:39.274Z,60.9
2018-07-27T03:36:39.261Z,60.72
2018-07-27T03:37:39.255Z,60.98
2018-07-27T03:38:39.275Z,61.2
2018-07-27T03:39:39.267Z,61.2
2018-07-27T03:40:39.369Z,60.93
2018-07-27T03:41:39.292Z,61.24
2018-07-27T03:42:39.341Z,60.8
2018-07-27T03:43:39.392Z,60.74
2018-07-27T03:44:39.260Z,61
2018-07-27T03:45:39.264Z,61.01
2018-07-27T03:46:39.316Z,61.08
2018-07-27T03:47:39.346Z,61.45
2018-07-27T03:48:39.468Z,61.34
2018-07-27T03:49:39.284Z,61.46
2018-07-27T03:50:39.302Z,61.66
2018-07-27T03:51:39.327Z,61.68
2018-07-27T03:52:39.318Z,61.41
2018-07-27T03:53:39.298Z,61.49
2018-07-27T03:54:39.267Z,61.85
2018-07-27T03:55:39.285Z,61.38
2018-07-27T03:56:39.315Z,60.88
2018-07-27T03:57:39.351Z,59.88
2018-07-27T03:58:39.271Z,60.16
2018-07-27T03:59:39.356Z,60.23
2018-07-27T04:00:39.502Z,61.08
2018-07-27T04:01:39.276Z,61.28
2018-07-27T04:02:39.356Z,60.89
2018-07-27T04:03:39.480Z,61.25
2018-07-27T04:04:39.277Z,61.51
2018-07-27T04:05:39.367Z,61.01
2018-07-27T04:06:39.282Z,61.34
2018-07-27T04:07:39.368Z,61.84
2018-07-27T04:08:39.599Z,60.95
2018-07-27T04:09:39.302Z,60.79
2018-07-27T04:10:39.286Z,61.81
2018-07-27T04:11:39.387Z,61.08
2018-07-27T04:12:39.281Z,61.07
2018-07-27T04:13:39.350Z,61.33
2018-07-27T04:14:39.384Z,60.45
2018-07-27T04:15:39.306Z,60.92
2018-07-27T04:16:39.487Z,61.51
2018-07-27T04:17:39.303Z,61.45
2018-07-27T04:18:39.336Z,61.82
2018-07-27T04:19:39.389Z,61.6
2018-07-27T04:20:39.342Z,61.12
2018-07-27T04:21:39.391Z,61.58
2018-07-27T04:22:39.419Z,61.31
2018-07-27T04:23:39.336Z,61.34
2018-07-27T04:24:39.389Z,61.14
2018-07-27T04:25:39.302Z,61.5
2018-07-27T04:26:39.343Z,61.46
2018-07-27T04:27:39.324Z,60.88
2018-07-27T04:28:39.442Z,61.38
2018-07-27T04:29:39.347Z,61.47
2018-07-27T04:30:39.371Z,61.83
2018-07-27T04:31:39.387Z,62.33
2018-07-27T04:32:39.327Z,61.95
2018-07-27T04:33:39.323Z,62.1
2018-07-27T04:34:39.353Z,62.11
2018-07-27T04:35:39.612Z,61.88
2018-07-27T04:36:39.316Z,61.09
2018-07-27T04:37:39.362Z,61.85
2018-07-27T04:38:39.357Z,62.32
2018-07-27T04:39:39.329Z,61.88
2018-07-27T04:40:39.346Z,61.65
2018-07-27T04:41:39.349Z,61.86
2018-07-27T04:42:39.339Z,61.78
2018-07-27T04:43:39.366Z,61.09
2018-07-27T04:44:39.385Z,61.64
2018-07-27T04:45:39.317Z,61.53
2018-07-27T04:46:39.375Z,62.71
2018-07-27T04:47:39.332Z,63.19
2018-07-27T04:48:39.386Z,63.06
2018-07-27T04:49:39.408Z,62.32
2018-07-27T04:50:39.346Z,62.47
2018-07-27T04:51:39.357Z,62.52
2018-07-27T04:52:39.348Z,61.71
2018-07-27T04:53:39.419Z,62.35
2018-07-27T04:54:39.398Z,61.07
2018-07-27T04:55:39.367Z,61.73
2018-07-27T04:56:39.965Z,61.34
2018-07-27T04:57:39.442Z,62.07
2018-07-27T04:58:39.394Z,61.26
2018-07-27T04:59:39.464Z,61.96
2018-07-27T05:00:39.381Z,62.62
2018-07-27T05:01:39.490Z,62.44
2018-07-27T05:02:39.450Z,62.05
2018-07-27T05:03:39.406Z,61.43
2018-07-27T05:04:39.585Z,61.64
2018-07-27T05:05:39.395Z,61.84
2018-07-27T05:06:39.396Z,61.81
2018-07-27T05:07:39.542Z,61.91
2018-07-27T05:08:39.452Z,62.15
2018-07-27T05:09:39.423Z,62.09
2018-07-27T05:10:39.395Z,61.72
2018-07-27T05:11:39.429Z,62.23
2018-07-27T05:12:39.416Z,61.85
2018-07-27T05:13:39.375Z,61.85
2018-07-27T05:14:39.404Z,61.06
2018-07-27T05:15:39.389Z,61.1
2018-07-27T05:16:39.532Z,61.02
2018-07-27T05:17:39.375Z,61.22
2018-07-27T05:18:39.492Z,60.77
2018-07-27T05:19:39.393Z,61.09
2018-07-27T05:20:39.447Z,60.42
2018-07-27T05:21:39.408Z,60.4
2018-07-27T05:22:39.411Z,60.18
2018-07-27T05:23:39.423Z,61.33
2018-07-27T05:24:39.790Z,60.49
2018-07-27T05:25:39.499Z,60.13
2018-07-27T05:26:39.471Z,61.32
2018-07-27T05:27:39.416Z,61.02
2018-07-27T05:28:39.682Z,60.49
2018-07-27T05:29:39.477Z,61.23
2018-07-27T05:30:39.461Z,60.42
2018-07-27T05:31:39.448Z,60.14
2018-07-27T05:32:39.420Z,58.35
2018-07-27T05:33:39.434Z,58.2
2018-07-27T05:34:39.588Z,58.84
2018-07-27T05:35:39.441Z,58.09
2018-07-27T05:36:39.439Z,57.92
2018-07-27T05:37:39.508Z,57.59
2018-07-27T05:38:39.682Z,57.82
2018-07-27T05:39:39.523Z,57.38
2018-07-27T05:40:39.438Z,57.4
2018-07-27T05:41:39.429Z,57.01
2018-07-27T05:42:39.437Z,56.36
2018-07-27T05:43:39.445Z,56.61
2018-07-27T05:44:39.457Z,56.36
2018-07-27T05:45:39.522Z,55.93
2018-07-27T05:46:39.491Z,55.69
2018-07-27T05:47:39.443Z,55.92
2018-07-27T05:48:39.722Z,55.32
2018-07-27T05:49:39.600Z,55.59
2018-07-27T05:50:39.434Z,55.47
2018-07-27T05:51:39.503Z,55.22
2018-07-27T05:52:39.671Z,55.21
2018-07-27T05:53:39.478Z,55.19
2018-07-27T05:54:39.444Z,55.11
2018-07-27T05:55:39.467Z,55.08
2018-07-27T05:56:39.433Z,54.82
2018-07-27T05:57:39.454Z,55.19
2018-07-27T05:58:39.503Z,55.89
2018-07-27T05:59:39.486Z,55.21
2018-07-27T06:00:39.480Z,55.2
2018-07-27T06:01:39.464Z,55.43
2018-07-27T06:02:39.716Z,54.86
2018-07-27T06:03:39.518Z,54.64
2018-07-27T06:04:39.492Z,54.71
2018-07-27T06:05:39.451Z,54.43
2018-07-27T06:06:39.474Z,54.35
2018-07-27T06:07:39.465Z,54.08
2018-07-27T06:08:39.629Z,54.04
2018-07-27T06:09:39.463Z,53.99
2018-07-27T06:10:39.477Z,54.09
2018-07-27T06:11:39.504Z,54.26
2018-07-27T06:12:39.515Z,53.46
2018-07-27T06:13:39.515Z,53.49
2018-07-27T06:14:39.486Z,53.48
2018-07-27T06:15:39.560Z,53.19
2018-07-27T06:16:39.495Z,53.26
2018-07-27T06:17:39.469Z,53.13
2018-07-27T06:18:39.475Z,53.19
2018-07-27T06:19:39.712Z,53.12
2018-07-27T06:20:39.492Z,52.97
2018-07-27T06:21:39.516Z,53.09
2018-07-27T06:22:39.473Z,53.14
2018-07-27T06:23:39.540Z,53.08
2018-07-27T06:24:39.568Z,53.16
2018-07-27T06:25:39.823Z,53.2
2018-07-27T06:26:39.873Z,53.2
2018-07-27T06:27:39.564Z,53.13
2018-07-27T06:28:39.569Z,52.96
2018-07-27T06:29:39.662Z,52.82
2018-07-27T06:30:39.508Z,52.82
2018-07-27T06:31:39.569Z,53.01
2018-07-27T06:32:40.123Z,52.66
2018-07-27T06:33:39.508Z,53.14
2018-07-27T06:34:39.535Z,52.81
2018-07-27T06:35:39.491Z,52.62
2018-07-27T06:36:39.606Z,52.66
2018-07-27T06:37:39.529Z,52.61
2018-07-27T06:38:39.659Z,52.86
2018-07-27T06:39:39.520Z,52.81
2018-07-27T06:40:39.524Z,52.38
2018-07-27T06:41:39.522Z,52.34
2018-07-27T06:42:39.650Z,52.28
2018-07-27T06:43:39.568Z,52.16
2018-07-27T06:44:39.696Z,52.63
2018-07-27T06:45:39.513Z,52.48
2018-07-27T06:46:39.558Z,52.49
2018-07-27T06:47:39.525Z,52.99
2018-07-27T06:48:39.513Z,52.89
2018-07-27T06:49:39.518Z,52.87
2018-07-27T06:50:39.625Z,52.71
2018-07-27T06:51:39.542Z,52.55
2018-07-27T06:52:39.535Z,52.41
2018-07-27T06:53:39.602Z,52.51
2018-07-27T06:54:39.568Z,52.38
2018-07-27T06:55:39.634Z,52.36
2018-07-27T06:56:39.672Z,52.79
2018-07-27T06:57:39.596Z,52.82
2018-07-27T06:58:39.583Z,52.07
2018-07-27T06:59:39.515Z,52.43
2018-07-27T07:00:39.644Z,52.6
2018-07-27T07:01:39.537Z,52.01
2018-07-27T07:02:39.508Z,51.67
2018-07-27T07:03:39.622Z,51.59
2018-07-27T07:04:39.521Z,51.66
2018-07-27T07:05:39.611Z,52.28
2018-07-27T07:06:39.549Z,52.1
2018-07-27T07:07:39.600Z,52
2018-07-27T07:08:39.531Z,52.54
2018-07-27T07:09:39.530Z,51.69
2018-07-27T07:10:39.541Z,51.61
2018-07-27T07:11:39.522Z,50.95
2018-07-27T07:12:39.532Z,50.13
2018-07-27T07:13:39.561Z,50.63
2018-07-27T07:14:39.563Z,50.48
2018-07-27T07:15:39.552Z,50.42
2018-07-27T07:16:41.819Z,50.38
2018-07-27T07:17:39.507Z,50.21
2018-07-27T07:18:39.569Z,50.04
2018-07-27T07:19:39.549Z,49.7
2018-07-27T07:20:39.560Z,49
2018-07-27T07:21:39.575Z,48.85
2018-07-27T07:22:39.539Z,48.84
2018-07-27T07:23:39.556Z,49.19
2018-07-27T07:24:39.555Z,49.04
2018-07-27T07:25:40.870Z,49.63
2018-07-27T07:26:39.549Z,48.97
2018-07-27T07:27:39.578Z,48.29
2018-07-27T07:28:39.546Z,48.33
2018-07-27T07:29:39.547Z,48.26
2018-07-27T07:30:39.550Z,48.49
2018-07-27T07:31:39.537Z,48.31
2018-07-27T07:32:39.597Z,47.6
2018-07-27T07:33:39.603Z,47.99
2018-07-27T07:34:39.539Z,47.95
2018-07-27T07:35:39.551Z,48.23
2018-07-27T07:36:39.658Z,48.05
2018-07-27T07:37:39.615Z,47.45
2018-07-27T07:38:39.572Z,47.84
2018-07-27T07:39:39.663Z,47.59
2018-07-27T07:40:39.658Z,47.09
2018-07-27T07:41:39.581Z,47.32
2018-07-27T07:42:39.712Z,47.22
2018-07-27T07:43:39.646Z,47.26
2018-07-27T07:44:39.603Z,47.67
2018-07-27T07:45:44.685Z,47.79
2018-07-27T07:46:39.591Z,48.16
2018-07-27T07:47:39.611Z,47.92
2018-07-27T07:48:39.656Z,47.27
2018-07-27T07:49:39.570Z,47.08
2018-07-27T07:50:39.594Z,47.13
2018-07-27T07:51:39.592Z,47.04
2018-07-27T07:52:39.613Z,47.29
2018-07-27T07:53:39.610Z,47.26
2018-07-27T07:54:39.584Z,46.99
2018-07-27T07:55:39.597Z,47.04
2018-07-27T07:56:39.695Z,47.35
2018-07-27T07:57:39.583Z,47.69
2018-07-27T07:58:39.899Z,47.57
2018-07-27T07:59:39.589Z,47.48
2018-07-27T08:00:39.588Z,47.26
2018-07-27T08:01:39.593Z,47.16
2018-07-27T08:02:39.683Z,47.07
2018-07-27T08:03:39.611Z,47.14
2018-07-27T08:04:39.639Z,47.04
2018-07-27T08:05:39.800Z,47.14
2018-07-27T08:06:39.648Z,47.09
2018-07-27T08:07:39.611Z,47.35
2018-07-27T08:08:39.743Z,46.35
2018-07-27T08:09:39.655Z,46.08
2018-07-27T08:10:39.741Z,46.38
2018-07-27T08:11:39.694Z,46.2
2018-07-27T08:12:39.599Z,46.34
2018-07-27T08:13:39.612Z,46.42
2018-07-27T08:14:39.592Z,46.7
2018-07-27T08:15:39.681Z,46.64
2018-07-27T08:16:39.634Z,47.12
2018-07-27T08:17:39.739Z,46.92
2018-07-27T08:18:39.612Z,46.74
2018-07-27T08:19:39.624Z,47.01
2018-07-27T08:20:39.621Z,47.3
2018-07-27T08:21:39.769Z,46.62
2018-07-27T08:22:39.638Z,47.02
2018-07-27T08:23:39.670Z,46.96
2018-07-27T08:24:39.599Z,47.45
2018-07-27T08:25:39.656Z,47.1
2018-07-27T08:26:39.639Z,46.34
2018-07-27T08:27:39.633Z,46.23
2018-07-27T08:28:39.645Z,46.29
2018-07-27T08:29:39.648Z,46.76
2018-07-27T08:30:39.633Z,46.42
2018-07-27T08:31:39.625Z,46.48
2018-07-27T08:32:39.669Z,46.32
2018-07-27T08:33:39.634Z,46.01
2018-07-27T08:34:39.639Z,45.67
2018-07-27T08:35:39.652Z,45.75
2018-07-27T08:36:39.636Z,45.67
2018-07-27T08:37:39.680Z,46.03
2018-07-27T08:38:39.644Z,45.97
2018-07-27T08:39:39.913Z,45.64
2018-07-27T08:40:39.686Z,46.11
2018-07-27T08:41:39.649Z,45.48
2018-07-27T08:42:39.896Z,45.65
2018-07-27T08:43:39.682Z,45.61
2018-07-27T08:44:39.692Z,45.35
2018-07-27T08:45:39.638Z,45.44
2018-07-27T08:46:39.691Z,45.26
2018-07-27T08:47:39.958Z,44.95
2018-07-27T08:48:39.931Z,45.36
2018-07-27T08:49:39.641Z,45.38
2018-07-27T08:50:39.655Z,45.18
2018-07-27T08:51:39.670Z,45.14
2018-07-27T08:52:39.658Z,45.18
2018-07-27T08:53:39.778Z,45.31
2018-07-27T08:54:39.674Z,45.55
2018-07-27T08:55:39.758Z,45.23
2018-07-27T08:56:39.706Z,45.48
2018-07-27T08:57:39.673Z,45.32
2018-07-27T08:58:39.887Z,45.09
2018-07-27T08:59:39.700Z,45.25
2018-07-27T09:00:39.803Z,45.24
2018-07-27T09:01:39.728Z,45.19
2018-07-27T09:02:39.700Z,45.49
2018-07-27T09:03:39.718Z,45.21
2018-07-27T09:04:39.703Z,45.4
2018-07-27T09:05:39.708Z,45.31
2018-07-27T09:06:39.676Z,45.1
2018-07-27T09:07:39.748Z,44.78
2018-07-27T09:08:39.948Z,45.03
2018-07-27T09:09:39.696Z,45.51
2018-07-27T09:10:39.670Z,45.21
2018-07-27T09:11:39.761Z,44.91
2018-07-27T09:12:39.679Z,44.7
2018-07-27T09:13:39.826Z,44.83
2018-07-27T09:14:39.732Z,44.43
2018-07-27T09:15:39.718Z,43.91
2018-07-27T09:16:39.753Z,44.22
2018-07-27T09:17:39.742Z,44.13
2018-07-27T09:18:39.693Z,44.26
2018-07-27T09:19:39.758Z,44.47
2018-07-27T09:20:39.691Z,43.68
2018-07-27T09:21:40.024Z,43.56
2018-07-27T09:22:39.704Z,43.48
2018-07-27T09:23:39.855Z,43.38
2018-07-27T09:24:40.785Z,43.42
2018-07-27T09:25:39.759Z,43.62
2018-07-27T09:26:39.702Z,43.45
2018-07-27T09:27:39.765Z,43.18
2018-07-27T09:28:39.758Z,42.75
2018-07-27T09:29:39.690Z,42.82
2018-07-27T09:30:39.784Z,42.92
2018-07-27T09:31:39.704Z,42.29
2018-07-27T09:32:39.713Z,42.15
2018-07-27T09:33:39.689Z,41.42
2018-07-27T09:34:40.119Z,41.31
2018-07-27T09:35:39.886Z,41.96
2018-07-27T09:36:39.722Z,41.92
2018-07-27T09:37:39.832Z,41.69
2018-07-27T09:38:39.704Z,41.79
2018-07-27T09:39:39.834Z,41.74
2018-07-27T09:40:39.711Z,40.92
2018-07-27T09:41:39.717Z,40.98
2018-07-27T09:42:39.736Z,41.27
2018-07-27T09:43:39.746Z,41.25
2018-07-27T09:44:39.716Z,41.22
2018-07-27T09:45:39.688Z,41.37
2018-07-27T09:46:40.156Z,41.69
2018-07-27T09:47:39.712Z,41.41
2018-07-27T09:48:40.006Z,41.1
2018-07-27T09:49:39.743Z,40.99
2018-07-27T09:50:39.731Z,41.28
2018-07-27T09:51:40.098Z,41.26
2018-07-27T09:52:39.752Z,40.84
2018-07-27T09:53:40.167Z,40.51
2018-07-27T09:54:39.741Z,40.47
2018-07-27T09:55:39.765Z,40.53
2018-07-27T09:56:39.754Z,40.17
2018-07-27T09:57:39.760Z,39.93
2018-07-27T09:58:39.724Z,39.65
2018-07-27T09:59:37.988Z,39.92
2018-07-27T10:00:38.020Z,39.93
2018-07-27T10:01:38.042Z,39.01
2018-07-27T10:02:38.690Z,39.16
2018-07-27T10:03:37.973Z,38.87
2018-07-27T10:04:38.098Z,38.84
2018-07-27T10:05:38.045Z,38.64
2018-07-27T10:06:38.187Z,39.1
2018-07-27T10:07:38.040Z,39.3
2018-07-27T10:08:38.048Z,39.43
2018-07-27T10:09:38.021Z,39.19
2018-07-27T10:10:38.417Z,38.85
2018-07-27T10:11:37.983Z,39.21
2018-07-27T10:12:38.167Z,39.42
2018-07-27T10:13:38.001Z,39.6
2018-07-27T10:14:38.120Z,39.71
2018-07-27T10:15:38.062Z,39.69
2018-07-27T10:16:38.454Z,39.95
2018-07-27T10:17:38.108Z,39.66
2018-07-27T10:18:37.984Z,39.3
2018-07-27T10:19:38.391Z,38.78
2018-07-27T10:20:38.162Z,38.28
2018-07-27T10:21:38.385Z,38.87
2018-07-27T10:22:38.064Z,37.95
2018-07-27T10:23:38.055Z,37.95
2018-07-27T10:24:37.996Z,38.51
2018-07-27T10:25:38.140Z,38.81
2018-07-27T10:26:38.000Z,37.96
2018-07-27T10:27:38.041Z,38.12
2018-07-27T10:28:38.021Z,37.9
2018-07-27T10:29:37.983Z,38.03
2018-07-27T10:30:37.990Z,37.84
2018-07-27T10:31:38.008Z,37.73
2018-07-27T10:32:38.014Z,36.76
2018-07-27T10:33:38.097Z,37.02
2018-07-27T10:34:38.057Z,37.45
2018-07-27T10:35:38.069Z,37.31
2018-07-27T10:36:38.487Z,37.62
2018-07-27T10:37:38.089Z,37.58
2018-07-27T10:38:38.409Z,37.63
2018-07-27T10:39:38.060Z,37.48
2018-07-27T10:40:38.065Z,37.37
2018-07-27T10:41:38.011Z,37.57
2018-07-27T10:42:38.072Z,37.26
2018-07-27T10:43:37.977Z,36.85
2018-07-27T10:44:38.032Z,36.28
2018-07-27T10:45:38.037Z,36.12
2018-07-27T10:46:37.974Z,36.99
2018-07-27T10:47:38.001Z,35.99
2018-07-27T10:48:38.132Z,36.03
2018-07-27T10:49:37.992Z,35.93
2018-07-27T10:50:38.403Z,35.81
2018-07-27T10:51:37.998Z,36.21
2018-07-27T10:52:38.011Z,35.87
2018-07-27T10:53:39.682Z,36.01
2018-07-27T10:54:38.403Z,35.73
2018-07-27T10:55:38.005Z,35.29
2018-07-27T10:56:37.971Z,35.61
2018-07-27T10:57:38.657Z,35.34
2018-07-27T10:58:38.041Z,35.16
2018-07-27T10:59:37.991Z,35.9
2018-07-27T11:00:37.977Z,35.6
2018-07-27T11:01:37.999Z,35.8
2018-07-27T11:02:38.356Z,35.55
2018-07-27T11:03:38.007Z,35.88
2018-07-27T11:04:37.992Z,35.65
2018-07-27T11:05:38.011Z,35.82
2018-07-27T11:06:38.013Z,35.59
2018-07-27T11:07:38.051Z,35.32
2018-07-27T11:08:38.145Z,35.85
2018-07-27T11:09:38.101Z,36.19
2018-07-27T11:10:37.992Z,35.5
2018-07-27T11:11:37.996Z,35.63
2018-07-27T11:12:38.109Z,35.58
2018-07-27T11:13:37.987Z,34.93
2018-07-27T11:14:37.993Z,35.03
2018-07-27T11:15:37.986Z,35.04
2018-07-27T11:16:38.030Z,35.42
2018-07-27T11:17:38.715Z,33.75
2018-07-27T11:18:38.130Z,33.79
2018-07-27T11:19:38.144Z,33.92
2018-07-27T11:20:38.000Z,34.29
2018-07-27T11:21:38.066Z,34.45
2018-07-27T11:22:37.989Z,34.78
2018-07-27T11:23:38.016Z,34.27
2018-07-27T11:24:38.002Z,34.76
2018-07-27T11:25:38.303Z,34.36
2018-07-27T11:26:38.046Z,34.22
2018-07-27T11:27:38.031Z,33.89
2018-07-27T11:28:38.024Z,34.02
2018-07-27T11:29:38.020Z,34.59
2018-07-27T11:30:38.048Z,34.23
2018-07-27T11:31:38.022Z,34.03
2018-07-27T11:32:38.029Z,34.47
2018-07-27T11:33:38.007Z,34.86
2018-07-27T11:34:38.057Z,34.82
2018-07-27T11:35:37.986Z,33.48
2018-07-27T11:36:37.966Z,33.97
2018-07-27T11:37:38.043Z,34.77
2018-07-27T11:38:38.017Z,34.25
2018-07-27T11:39:37.972Z,33.71
2018-07-27T11:40:38.213Z,32.71
2018-07-27T11:41:38.018Z,32.87
2018-07-27T11:42:38.335Z,32.92
2018-07-27T11:43:38.017Z,33.88
2018-07-27T11:44:38.107Z,34.13
2018-07-27T11:45:38.144Z,33.48
2018-07-27T11:46:38.180Z,32.8
2018-07-27T11:47:38.005Z,33.33
2018-07-27T11:48:37.974Z,32.99
2018-07-27T11:49:37.967Z,32.75
2018-07-27T11:50:37.981Z,31.69
2018-07-27T11:51:37.998Z,32.46
2018-07-27T11:52:37.989Z,32.22
2018-07-27T11:53:38.016Z,31.22
2018-07-27T11:54:38.127Z,31.77
2018-07-27T11:55:38.099Z,31.18
2018-07-27T11:56:38.067Z,30.94
2018-07-27T11:57:38.136Z,30.75
2018-07-27T11:58:38.335Z,31.94
2018-07-27T11:59:38.142Z,30.79
2018-07-27T12:00:38.355Z,31.28
2018-07-27T12:01:38.860Z,31.26
2018-07-27T12:02:38.195Z,31.49
2018-07-27T12:03:38.166Z,30.79
2018-07-27T12:04:38.187Z,29.98
2018-07-27T12:05:38.072Z,29.23
2018-07-27T12:06:38.335Z,30.52
2018-07-27T12:07:38.076Z,29.31
2018-07-27T12:08:38.258Z,29.36
2018-07-27T12:09:38.109Z,28.49
2018-07-27T12:10:38.172Z,27.34
2018-07-27T12:11:39.191Z,27.61
2018-07-27T12:12:38.074Z,26.88
2018-07-27T12:13:38.152Z,27.05
2018-07-27T12:14:39.773Z,27.06
2018-07-27T12:15:38.146Z,27.14
2018-07-27T12:16:38.056Z,26.83
2018-07-27T12:17:38.011Z,26.65
2018-07-27T12:18:38.152Z,27.03
2018-07-27T12:19:38.057Z,26.74
2018-07-27T12:20:38.412Z,26.51
2018-07-27T12:21:39.776Z,26.64
2018-07-27T12:22:37.987Z,26.92
2018-07-27T12:23:38.083Z,27.26
2018-07-27T12:24:38.083Z,27.2
2018-07-27T12:25:37.964Z,27.43
2018-07-27T12:26:38.223Z,28.38
2018-07-27T12:27:38.008Z,27.94
2018-07-27T12:28:37.969Z,28.21
2018-07-27T12:29:38.022Z,27.06
2018-07-27T12:30:38.451Z,26.85
2018-07-27T12:31:37.999Z,26.93
2018-07-27T12:32:38.282Z,26.79
2018-07-27T12:33:37.984Z,26.84
2018-07-27T12:34:38.164Z,27.11
2018-07-27T12:35:37.977Z,26.34
2018-07-27T12:36:38.010Z,27.05
2018-07-27T12:37:38.490Z,27.45
2018-07-27T12:38:38.134Z,27.16
2018-07-27T12:39:38.050Z,26.99
2018-07-27T12:40:38.230Z,26.9
2018-07-27T12:41:37.979Z,25.92
2018-07-27T12:42:38.342Z,25.68
2018-07-27T12:43:37.980Z,25.93
2018-07-27T12:44:38.339Z,26.56
2018-07-27T12:45:38.037Z,26.89
2018-07-27T12:46:38.154Z,25.6
2018-07-27T12:47:38.121Z,26.39
2018-07-27T12:48:38.167Z,24.89
2018-07-27T12:49:38.002Z,24.52
2018-07-27T12:50:38.131Z,24.49
2018-07-27T12:51:38.082Z,24.87
2018-07-27T12:52:37.986Z,25.34
2018-07-27T12:53:38.023Z,25.12
2018-07-27T12:54:38.050Z,25.48
2018-07-27T12:55:38.088Z,24.21